Time;durP1;ratioP1;P1;durP2;ratioP2;P2;SDS_P1;SDS_P2;PMS_P1;PMS_P2;Temp;Humidity;BMP_temperature;BMP_pressure;BME280_temperature;BME280_humidity;BME280_pressure;Samples;Min_cycle;Max_cycle;Signal;HPM_P1;HPM_P2
2023/09/10 00:00:23;;;;;;;;;12.00;12.00;;;;;32.48;68.65;100930.34;2113639;27;46212;-62
2023/09/10 00:01:23;;;;;;;;;12.00;11.00;;;;;32.49;68.20;100929.31;2104788;28;46771;-62
2023/09/10 00:02:24;;;;;;;;;9.00;9.00;;;;;32.48;68.27;100922.09;2113293;27;46114;-62
2023/09/10 00:03:24;;;;;;;;;11.50;11.00;;;;;32.50;68.60;100925.53;2122181;27;46766;-62
2023/09/10 00:04:26;;;;;;;;;14.25;12.50;;;;;32.48;68.34;100927.59;2113207;27;46636;-62
2023/09/10 00:05:27;;;;;;;;;10.00;10.00;;;;;32.47;68.57;100925.88;2113614;27;46995;-63
2023/09/10 00:06:27;;;;;;;;;14.25;11.50;;;;;32.47;68.75;100918.50;2122720;27;46640;-63
2023/09/10 00:07:27;;;;;;;;;11.50;11.50;;;;;32.46;68.64;100922.28;2121953;27;46598;-62
2023/09/10 00:08:28;;;;;;;;;13.00;11.75;;;;;32.44;68.22;100927.06;2121730;27;46294;-62
2023/09/10 00:09:28;;;;;;;;;9.75;9.25;;;;;32.43;68.90;100922.63;2116006;27;46498;-63
2023/09/10 00:10:28;;;;;;;;;12.75;11.00;;;;;32.42;68.61;100926.41;2112592;27;46779;-62
2023/09/10 00:11:29;;;;;;;;;11.00;11.00;;;;;32.40;69.27;100928.47;2117751;27;46272;-62
2023/09/10 00:12:29;;;;;;;;;14.00;13.00;;;;;32.38;68.74;100925.00;2114434;27;46496;-62
2023/09/10 00:13:30;;;;;;;;;13.75;12.25;;;;;32.39;68.88;100929.47;2122638;27;46613;-62
2023/09/10 00:14:30;;;;;;;;;13.00;10.00;;;;;32.38;68.90;100925.00;2122283;27;46771;-62
2023/09/10 00:15:30;;;;;;;;;11.75;11.75;;;;;32.38;68.87;100926.88;2112757;27;46536;-62
2023/09/10 00:16:31;;;;;;;;;15.00;13.75;;;;;32.35;69.15;100925.34;2113276;27;46456;-63
2023/09/10 00:17:31;;;;;;;;;12.00;12.00;;;;;32.35;69.00;100928.09;2106497;27;46278;-61
2023/09/10 00:18:31;;;;;;;;;13.25;13.25;;;;;32.34;69.10;100937.34;2113179;27;46734;-61
2023/09/10 00:19:32;;;;;;;;;13.00;12.75;;;;;32.32;69.09;100930.31;2121840;27;46570;-61
2023/09/10 00:20:32;;;;;;;;;10.25;10.25;;;;;32.31;69.13;100921.22;2113367;27;46520;-63
2023/09/10 00:21:33;;;;;;;;;13.00;12.25;;;;;32.30;69.22;100924.16;2113116;27;46882;-61
2023/09/10 00:22:34;;;;;;;;;13.00;12.00;;;;;32.30;69.84;100933.25;2122079;27;46649;-62
2023/09/10 00:23:34;;;;;;;;;10.20;10.20;;;;;32.28;69.09;100932.56;2122548;27;46854;-62
2023/09/10 00:24:35;;;;;;;;;9.75;9.75;;;;;32.27;69.80;100927.19;2122190;27;46484;-62
2023/09/10 00:25:35;;;;;;;;;12.00;12.00;;;;;32.27;69.88;100928.06;2122600;27;46347;-61
2023/09/10 00:26:36;;;;;;;;;14.00;13.25;;;;;32.26;69.91;100926.31;2122199;27;46357;-62
2023/09/10 00:27:36;;;;;;;;;12.50;11.50;;;;;32.24;69.32;100925.63;2122151;27;46298;-61
2023/09/10 00:28:36;;;;;;;;;11.00;11.00;;;;;32.24;69.62;100933.00;2122018;27;46749;-60
2023/09/10 00:29:37;;;;;;;;;11.50;11.50;;;;;32.22;69.66;100928.56;2120886;27;46903;-62
2023/09/10 00:30:37;;;;;;;;;12.25;9.75;;;;;32.19;69.97;100937.13;2118897;27;46773;-63
2023/09/10 00:31:37;;;;;;;;;9.75;9.75;;;;;32.19;69.99;100926.16;2116516;27;46960;-62
2023/09/10 00:32:38;;;;;;;;;14.50;13.25;;;;;32.19;70.05;100928.91;2122148;27;46316;-61
2023/09/10 00:33:38;;;;;;;;;14.50;12.00;;;;;32.18;69.46;100926.31;2113324;27;46184;-60
2023/09/10 00:34:38;;;;;;;;;11.00;11.00;;;;;32.15;69.50;100926.66;2113482;27;46772;-61
2023/09/10 00:35:38;;;;;;;;;13.75;13.75;;;;;32.13;70.42;100925.94;2112795;27;46569;-62
2023/09/10 00:36:39;;;;;;;;;9.50;9.50;;;;;32.11;69.93;100925.25;2104840;28;46477;-63
2023/09/10 00:37:40;;;;;;;;;11.75;11.75;;;;;32.10;70.47;100924.41;2112631;27;46352;-62
2023/09/10 00:38:40;;;;;;;;;10.00;10.00;;;;;32.10;70.08;100929.03;2121988;27;46884;-62
2023/09/10 00:39:40;;;;;;;;;11.25;11.25;;;;;32.07;70.15;100924.75;2122491;27;46192;-63
2023/09/10 00:40:40;;;;;;;;;13.50;12.25;;;;;32.07;70.81;100921.16;2122028;27;47135;-63
2023/09/10 00:41:41;;;;;;;;;11.50;11.50;;;;;32.07;70.30;100926.63;2122497;27;46550;-64
2023/09/10 00:42:41;;;;;;;;;11.75;11.75;;;;;32.07;70.62;100929.38;2113091;27;46634;-62
2023/09/10 00:43:41;;;;;;;;;13.25;11.50;;;;;32.09;70.51;100935.56;2112100;27;46246;-61
2023/09/10 00:44:42;;;;;;;;;11.50;10.00;;;;;32.08;70.53;100926.47;2121697;27;46826;-63
2023/09/10 00:45:42;;;;;;;;;12.00;11.75;;;;;32.08;70.49;100928.34;2122081;27;45818;-62
2023/09/10 00:46:42;;;;;;;;;11.50;11.50;;;;;32.08;71.21;100922.84;2120543;27;46493;-61
2023/09/10 00:47:46;;;;;;;;;13.50;13.50;;;;;32.08;71.45;100915.47;2112515;27;46530;-63
2023/09/10 00:48:47;;;;;;;;;10.20;10.20;;;;;32.07;70.75;100922.00;2113332;27;46789;-62
2023/09/10 00:49:49;;;;;;;;;14.00;12.75;;;;;32.07;71.25;100926.63;2122164;27;46337;-61
2023/09/10 00:50:50;;;;;;;;;10.40;10.40;;;;;32.05;71.13;100924.06;2118090;27;46673;-61
2023/09/10 00:51:50;;;;;;;;;10.20;8.80;;;;;32.07;71.34;100923.88;2115449;27;46499;-62
2023/09/10 00:52:57;;;;;;;;;13.00;12.00;;;;;32.07;71.80;100921.16;2114112;27;45833;-62
2023/09/10 00:53:59;;;;;;;;;10.20;10.00;;;;;32.06;71.73;100928.53;2122234;27;46839;-61
2023/09/10 00:54:59;;;;;;;;;11.00;11.00;;;;;32.07;71.58;100926.63;2122015;27;46322;-61
2023/09/10 00:56:00;;;;;;;;;12.00;11.75;;;;;32.06;71.55;100925.78;2121396;27;46883;-62
2023/09/10 00:57:01;;;;;;;;;11.00;10.25;;;;;32.05;71.28;100928.69;2112691;27;46816;-62
2023/09/10 00:58:02;;;;;;;;;11.00;11.00;;;;;32.06;71.74;100919.44;2113234;27;46952;-62
2023/09/10 00:59:03;;;;;;;;;12.50;10.75;;;;;32.06;71.79;100922.16;2122132;27;46549;-62
2023/09/10 01:00:10;;;;;;;;;13.75;11.75;;;;;32.06;72.22;100925.78;2121934;27;45598;-61
2023/09/10 01:01:11;;;;;;;;;10.80;10.40;;;;;32.08;71.66;100926.47;2121380;27;46514;-62
2023/09/10 01:02:14;;;;;;;;;12.25;12.25;;;;;32.07;70.99;100921.16;2113040;27;46247;-62
2023/09/10 01:03:15;;;;;;;;;9.60;9.00;;;;;31.95;71.45;100927.97;2094966;28;46921;-62
2023/09/10 01:04:19;;;;;;;;;12.50;11.75;;;;;31.95;72.50;100931.56;2103024;27;46507;-62
2023/09/10 01:05:19;;;;;;;;;10.40;10.20;;;;;32.02;71.87;100932.63;2121763;27;46448;-62
2023/09/10 01:06:21;;;;;;;;;12.00;12.00;;;;;32.04;71.45;100936.06;2121808;27;46273;-62
2023/09/10 01:07:22;;;;;;;;;7.00;7.00;;;;;32.04;71.53;100929.72;2122105;27;46379;-63
2023/09/10 01:08:23;;;;;;;;;13.00;10.80;;;;;32.03;71.29;100931.63;2121728;27;46307;-63
2023/09/10 01:09:23;;;;;;;;;10.20;10.20;;;;;32.04;71.48;100937.97;2120270;27;46829;-62
2023/09/10 01:10:29;;;;;;;;;12.00;12.00;;;;;32.02;71.18;100932.63;2113782;27;46067;-62
2023/09/10 01:11:53;;;;;;;;;13.20;11.20;;;;;32.00;71.14;100936.56;2119323;27;46686;-63
2023/09/10 01:13:17;;;;;;;;;13.20;13.20;;;;;32.00;71.15;100933.81;2117680;27;46551;-63
2023/09/10 01:14:25;;;;;;;;;13.40;12.20;;;;;31.97;71.42;100932.25;2115691;27;46605;-62
2023/09/10 01:15:34;;;;;;;;;12.20;11.00;;;;;31.97;71.57;100929.50;2122228;27;46724;-63
2023/09/10 01:16:47;;;;;;;;;9.20;9.20;;;;;31.98;71.47;100930.38;2121715;27;46696;-63
2023/09/10 01:18:02;;;;;;;;;11.20;9.60;;;;;31.97;70.91;100934.16;2120593;27;46855;-62
2023/09/10 01:19:33;;;;;;;;;14.00;12.40;;;;;31.95;71.38;100931.56;2121923;27;46295;-62
2023/09/10 01:21:11;;;;;;;;;9.20;9.20;;;;;31.96;71.18;100938.78;2114169;27;46539;-62
2023/09/10 01:22:36;;;;;;;;;10.20;10.20;;;;;31.92;71.73;100935.53;2114278;27;46245;-63
2023/09/10 01:23:50;;;;;;;;;13.20;13.20;;;;;31.90;71.38;100937.56;2113136;27;46674;-62
2023/09/10 01:24:52;;;;;;;;;10.80;9.00;;;;;31.87;71.75;100937.88;2120550;27;46427;-62
2023/09/10 01:25:52;;;;;;;;;9.00;8.00;;;;;31.85;71.53;100931.69;2112386;27;47314;-62
2023/09/10 01:26:57;;;;;;;;;14.00;12.25;;;;;31.83;71.96;100935.66;2094239;28;46452;-62
2023/09/10 01:27:57;;;;;;;;;9.80;9.80;;;;;31.81;72.25;100935.81;2099728;27;47370;-62
2023/09/10 01:28:58;;;;;;;;;14.00;14.00;;;;;31.82;72.28;100936.69;2107904;27;46362;-63
2023/09/10 01:29:58;;;;;;;;;14.75;11.75;;;;;31.85;72.22;100939.09;2112632;27;46097;-63
2023/09/10 01:30:58;;;;;;;;;10.00;10.00;;;;;31.85;71.86;100941.81;2106605;27;46254;-62
2023/09/10 01:32:01;;;;;;;;;10.00;9.00;;;;;31.84;72.35;100932.72;2104634;27;46369;-62
2023/09/10 01:33:20;;;;;;;;;11.60;11.60;;;;;31.82;71.95;100937.53;2103927;28;46477;-61
2023/09/10 01:34:30;;;;;;;;;10.60;10.60;;;;;31.86;71.81;100938.06;2102824;28;46537;-63
2023/09/10 01:36:00;;;;;;;;;12.20;10.60;;;;;31.86;72.22;100938.06;2097649;27;46305;-63
2023/09/10 01:37:10;;;;;;;;;9.80;9.80;;;;;31.85;72.94;100936.34;2103659;27;45700;-63
2023/09/10 01:38:20;;;;;;;;;13.20;11.00;;;;;31.90;72.37;100943.06;2103981;28;46806;-62
2023/09/10 01:39:23;;;;;;;;;10.80;10.80;;;;;31.91;72.07;100941.19;2103660;28;46791;-61
2023/09/10 01:40:31;;;;;;;;;10.60;8.00;;;;;31.90;72.16;100942.22;2105150;27;46909;-62
2023/09/10 01:41:35;;;;;;;;;12.00;9.60;;;;;31.89;72.06;100940.50;2102940;27;46845;-62
2023/09/10 01:42:36;;;;;;;;;10.40;8.60;;;;;31.86;72.71;100941.66;2108488;27;46925;-62
2023/09/10 01:43:37;;;;;;;;;11.20;9.60;;;;;31.86;72.46;100943.53;2107279;27;46553;-62
2023/09/10 01:44:41;;;;;;;;;11.00;10.75;;;;;31.59;73.49;100942.72;2104241;28;46825;-62
2023/09/10 01:45:42;;;;;;;;;11.20;8.60;;;;;32.01;72.27;100944.63;2103403;28;46457;-62
2023/09/10 01:46:44;;;;;;;;;12.60;10.80;;;;;32.06;71.37;100950.50;2103973;27;46938;-62
2023/09/10 01:47:44;;;;;;;;;12.60;11.20;;;;;32.09;71.52;100944.66;2101488;28;46780;-63
2023/09/10 01:48:45;;;;;;;;;8.50;8.00;;;;;32.10;71.60;100943.63;2103927;28;47155;-63
2023/09/10 01:49:45;;;;;;;;;11.75;9.75;;;;;32.04;71.95;100943.44;2093753;28;46289;-61
2023/09/10 01:50:46;;;;;;;;;11.25;11.25;;;;;32.10;71.45;100946.38;2107711;27;46431;-62
2023/09/10 01:51:47;;;;;;;;;11.20;10.00;;;;;32.12;71.00;100944.31;2101357;28;46307;-61
2023/09/10 01:52:47;;;;;;;;;10.00;10.00;;;;;32.12;70.96;100944.31;2104033;28;46812;-62
2023/09/10 01:53:48;;;;;;;;;10.25;10.25;;;;;32.13;70.99;100943.28;2104346;28;46486;-61
2023/09/10 01:54:48;;;;;;;;;11.75;11.50;;;;;32.12;70.57;100941.56;2095425;28;46545;-64
2023/09/10 01:55:48;;;;;;;;;11.75;10.25;;;;;32.14;70.58;100938.66;2094623;28;46540;-62
2023/09/10 01:56:49;;;;;;;;;10.00;10.00;;;;;32.14;70.69;100945.03;2100150;28;46888;-61
2023/09/10 01:57:49;;;;;;;;;8.25;8.00;;;;;32.13;70.53;100942.44;2103775;28;46423;-63
2023/09/10 01:58:49;;;;;;;;;12.50;11.00;;;;;32.13;70.83;100934.19;2116325;27;46721;-60
2023/09/10 01:59:50;;;;;;;;;9.00;8.50;;;;;32.12;70.44;100937.97;2112661;27;46769;-62
2023/09/10 02:00:50;;;;;;;;;13.25;10.75;;;;;32.13;70.37;100936.94;2112754;27;46308;-62
2023/09/10 02:01:51;;;;;;;;;9.50;9.50;;;;;32.09;70.38;100941.91;2121531;27;46814;-62
2023/09/10 02:02:51;;;;;;;;;12.50;11.25;;;;;32.11;71.08;100933.50;2121962;27;46536;-62
2023/09/10 02:03:51;;;;;;;;;11.50;11.50;;;;;32.10;70.64;100940.03;2119479;27;46517;-62
2023/09/10 02:04:52;;;;;;;;;10.00;9.50;;;;;32.09;70.91;100941.91;2120056;27;46197;-62
2023/09/10 02:05:52;;;;;;;;;14.25;12.00;;;;;32.08;70.67;100942.06;2121851;27;46196;-63
2023/09/10 02:06:52;;;;;;;;;9.50;9.50;;;;;32.05;70.97;100936.94;2121609;27;46152;-61
2023/09/10 02:07:53;;;;;;;;;7.75;7.75;;;;;32.04;70.57;100936.06;2118075;27;46621;-61
2023/09/10 02:08:53;;;;;;;;;10.00;10.00;;;;;32.03;71.05;100941.72;2121744;27;46900;-62
2023/09/10 02:09:53;;;;;;;;;10.25;10.00;;;;;32.01;71.15;100935.53;2112676;27;46462;-62
2023/09/10 02:10:53;;;;;;;;;10.75;10.00;;;;;32.00;70.82;100937.41;2112533;27;46278;-62
2023/09/10 02:11:54;;;;;;;;;9.75;8.75;;;;;32.01;70.58;100935.53;2121587;27;46742;-63
2023/09/10 02:12:54;;;;;;;;;10.00;9.25;;;;;31.99;70.82;100926.59;2121431;27;46810;-63
2023/09/10 02:13:54;;;;;;;;;14.75;12.50;;;;;31.97;70.61;100929.50;2121727;27;46630;-63
2023/09/10 02:14:58;;;;;;;;;8.25;8.00;;;;;31.96;71.19;100932.44;2121179;27;46870;-62
2023/09/10 02:15:58;;;;;;;;;10.00;10.00;;;;;31.97;70.65;100931.41;2119527;27;46804;-62
2023/09/10 02:16:58;;;;;;;;;11.75;11.75;;;;;31.98;70.70;100922.13;2122333;27;46338;-62
2023/09/10 02:17:59;;;;;;;;;13.50;12.00;;;;;31.99;70.82;100937.59;2121997;27;45480;-62
2023/09/10 02:18:59;;;;;;;;;12.25;11.25;;;;;31.99;70.91;100926.59;2121767;27;46514;-62
2023/09/10 02:19:59;;;;;;;;;9.75;9.25;;;;;31.99;70.73;100930.19;2121625;27;46287;-62
2023/09/10 02:21:00;;;;;;;;;10.25;10.00;;;;;31.99;70.93;100926.59;2121754;27;46948;-63
2023/09/10 02:22:02;;;;;;;;;13.50;11.00;;;;;31.99;71.04;100927.47;2122126;27;47276;-62
2023/09/10 02:23:03;;;;;;;;;9.80;9.00;;;;;31.99;71.28;100929.34;2112349;27;46322;-62
2023/09/10 02:24:03;;;;;;;;;9.40;9.40;;;;;32.00;70.69;100928.31;2112374;27;46430;-63
2023/09/10 02:25:05;;;;;;;;;10.00;9.00;;;;;32.00;70.99;100931.91;2121327;27;46095;-63
2023/09/10 02:26:05;;;;;;;;;10.20;9.00;;;;;32.00;70.99;100937.41;2120553;27;48012;-62
2023/09/10 02:27:05;;;;;;;;;10.00;10.00;;;;;32.01;70.59;100930.03;2119765;27;46612;-62
2023/09/10 02:28:06;;;;;;;;;11.25;11.25;;;;;31.99;70.54;100930.19;2121679;27;46525;-62
2023/09/10 02:29:06;;;;;;;;;11.00;11.00;;;;;32.02;71.08;100931.78;2121698;27;45956;-61
2023/09/10 02:30:07;;;;;;;;;9.50;9.50;;;;;32.01;70.54;100936.38;2121951;27;46155;-62
2023/09/10 02:31:08;;;;;;;;;10.40;8.80;;;;;32.00;70.71;100934.66;2121953;27;46176;-62
2023/09/10 02:32:08;;;;;;;;;8.00;8.00;;;;;32.00;70.78;100942.03;2103136;28;46238;-63
2023/09/10 02:33:09;;;;;;;;;9.50;9.50;;;;;31.98;70.96;100938.59;2103308;28;46776;-62
2023/09/10 02:34:09;;;;;;;;;11.75;11.75;;;;;31.98;70.81;100935.88;2120545;27;46464;-63
2023/09/10 02:35:10;;;;;;;;;10.50;10.50;;;;;32.01;70.78;100935.53;2121895;27;46096;-62
2023/09/10 02:36:10;;;;;;;;;8.50;8.50;;;;;32.01;71.58;100936.38;2115344;27;46445;-63
2023/09/10 02:37:12;;;;;;;;;9.50;9.50;;;;;32.00;71.19;100940.16;2121460;27;46612;-62
2023/09/10 02:38:12;;;;;;;;;11.40;11.40;;;;;31.99;70.97;100938.44;2121313;27;47166;-63
2023/09/10 02:39:13;;;;;;;;;9.50;9.50;;;;;31.98;70.97;100938.59;2117369;27;46603;-62
2023/09/10 02:40:13;;;;;;;;;10.25;10.25;;;;;31.96;71.15;100941.53;2111856;27;46928;-62
2023/09/10 02:41:14;;;;;;;;;10.75;10.75;;;;;31.94;71.65;100940.84;2112818;27;46316;-62
2023/09/10 02:42:14;;;;;;;;;13.50;9.75;;;;;31.90;71.80;100945.81;2110986;27;46823;-63
2023/09/10 02:43:14;;;;;;;;;12.25;11.50;;;;;31.89;71.76;100944.09;2112442;27;46713;-61
2023/09/10 02:44:15;;;;;;;;;10.50;10.50;;;;;31.90;71.75;100937.56;2116959;27;46454;-61
2023/09/10 02:45:16;;;;;;;;;10.50;10.50;;;;;31.89;72.11;100941.34;2106086;27;46367;-62
2023/09/10 02:46:16;;;;;;;;;11.50;11.50;;;;;31.89;71.71;100944.09;2086227;28;46842;-62
2023/09/10 02:47:16;;;;;;;;;10.00;10.00;;;;;31.91;72.64;100941.19;2095342;28;46414;-61
2023/09/10 02:48:16;;;;;;;;;10.50;9.00;;;;;31.90;72.28;100942.22;2121542;27;46231;-62
2023/09/10 02:49:17;;;;;;;;;10.50;10.00;;;;;31.93;72.15;100941.88;2121708;27;46465;-63
2023/09/10 02:50:17;;;;;;;;;13.00;13.00;;;;;31.92;72.12;100938.25;2120797;27;46265;-63
2023/09/10 02:51:17;;;;;;;;;10.00;10.00;;;;;31.95;72.03;100945.28;2112323;27;46542;-63
2023/09/10 02:52:19;;;;;;;;;10.50;10.00;;;;;31.95;72.03;100942.56;2104325;28;46930;-63
2023/09/10 02:53:19;;;;;;;;;12.20;9.40;;;;;31.97;72.08;100950.63;2112359;27;46668;-62
2023/09/10 02:54:19;;;;;;;;;11.50;10.00;;;;;31.96;72.13;100944.28;2119535;27;46630;-63
2023/09/10 02:55:22;;;;;;;;;11.00;9.75;;;;;31.97;71.98;100946.00;2116357;27;46526;-62
2023/09/10 02:56:22;;;;;;;;;10.40;10.40;;;;;31.94;72.05;100938.09;2121417;27;46432;-62
2023/09/10 02:57:22;;;;;;;;;11.25;11.25;;;;;31.95;72.06;100938.94;2110414;27;46785;-63
2023/09/10 02:58:22;;;;;;;;;11.00;11.00;;;;;31.95;72.16;100944.44;2107341;27;46258;-63
2023/09/10 02:59:26;;;;;;;;;13.00;12.50;;;;;31.95;71.72;100941.69;2121417;27;46295;-62
2023/09/10 03:00:26;;;;;;;;;8.20;8.20;;;;;31.91;72.10;100942.03;2121647;27;46293;-62
2023/09/10 03:01:27;;;;;;;;;10.50;9.75;;;;;31.89;72.34;100941.34;2122533;27;46459;-63
2023/09/10 03:02:27;;;;;;;;;10.75;10.75;;;;;31.85;72.13;100934.44;2122901;27;46142;-63
2023/09/10 03:03:27;;;;;;;;;11.00;9.25;;;;;31.84;72.46;100940.97;2121524;27;46704;-62
2023/09/10 03:04:28;;;;;;;;;9.75;9.75;;;;;31.82;72.40;100932.03;2122353;27;46124;-62
2023/09/10 03:05:32;;;;;;;;;13.25;11.00;;;;;31.83;72.47;100932.91;2115328;27;46832;-62
2023/09/10 03:06:32;;;;;;;;;10.80;10.80;;;;;31.83;72.34;100932.91;2117320;27;46460;-62
2023/09/10 03:07:32;;;;;;;;;11.25;11.25;;;;;31.84;72.77;100929.13;2122133;27;47425;-59
2023/09/10 03:08:35;;;;;;;;;9.75;9.75;;;;;31.83;72.20;100924.66;2121886;27;46611;-61
2023/09/10 03:09:36;;;;;;;;;9.20;9.20;;;;;31.82;72.81;100931.19;2121600;27;46607;-62
2023/09/10 03:10:36;;;;;;;;;8.75;8.75;;;;;31.81;72.28;100923.97;2122867;27;46825;-62
2023/09/10 03:11:37;;;;;;;;;8.00;8.00;;;;;31.80;72.83;100927.75;2122958;27;46629;-62
2023/09/10 03:12:38;;;;;;;;;11.20;9.80;;;;;31.79;73.07;100924.16;2123026;27;46398;-62
2023/09/10 03:13:38;;;;;;;;;9.75;9.75;;;;;31.80;72.99;100927.75;2122741;27;46648;-61
2023/09/10 03:14:38;;;;;;;;;8.75;8.75;;;;;31.79;73.23;100928.78;2122211;27;46114;-62
2023/09/10 03:15:39;;;;;;;;;9.50;9.50;;;;;31.79;73.35;100926.03;2121528;27;46292;-62
2023/09/10 03:16:40;;;;;;;;;8.75;7.75;;;;;31.79;72.46;100921.41;2122831;27;46214;-62
2023/09/10 03:17:40;;;;;;;;;11.00;11.00;;;;;31.78;73.14;100927.06;2122546;27;46346;-62
2023/09/10 03:18:41;;;;;;;;;8.75;8.75;;;;;31.78;72.89;100921.56;2122420;27;46969;-62
2023/09/10 03:19:41;;;;;;;;;11.00;8.75;;;;;31.77;72.89;100925.34;2118139;27;46235;-62
2023/09/10 03:20:42;;;;;;;;;11.50;10.50;;;;;31.77;73.06;100917.13;2114917;27;45582;-62
2023/09/10 03:21:42;;;;;;;;;11.75;11.75;;;;;31.76;73.09;100915.38;2121889;27;46182;-62
2023/09/10 03:22:42;;;;;;;;;11.75;11.75;;;;;31.74;73.29;100912.78;2122244;27;46523;-62
2023/09/10 03:23:42;;;;;;;;;8.00;8.00;;;;;31.76;73.32;100919.00;2122871;27;46266;-62
2023/09/10 03:24:43;;;;;;;;;10.50;10.00;;;;;31.76;73.20;100920.84;2117461;27;46263;-61
2023/09/10 03:25:43;;;;;;;;;13.75;12.25;;;;;31.74;73.16;100910.06;2113865;27;46297;-61
2023/09/10 03:26:43;;;;;;;;;11.00;10.50;;;;;31.71;73.00;100912.25;2122902;27;46263;-62
2023/09/10 03:27:44;;;;;;;;;11.00;11.00;;;;;31.69;73.04;100906.91;2122158;27;46924;-60
2023/09/10 03:28:44;;;;;;;;;11.25;10.00;;;;;31.67;73.17;100914.47;2118577;27;46249;-62
2023/09/10 03:29:45;;;;;;;;;13.25;12.50;;;;;31.68;73.31;100913.44;2119622;27;46034;-62
2023/09/10 03:30:45;;;;;;;;;9.75;9.75;;;;;31.64;72.60;100901.09;2120030;27;46244;-62
2023/09/10 03:31:45;;;;;;;;;9.00;9.00;;;;;31.65;73.30;100904.69;2121920;27;46424;-62
2023/09/10 03:32:50;;;;;;;;;7.75;7.75;;;;;31.61;72.74;100904.13;2121528;27;47273;-62
2023/09/10 03:33:50;;;;;;;;;13.00;11.80;;;;;31.57;73.02;100902.75;2122538;27;47011;-61
2023/09/10 03:34:50;;;;;;;;;11.25;11.25;;;;;31.55;72.46;100902.06;2122677;27;46602;-62
2023/09/10 03:35:51;;;;;;;;;11.00;10.50;;;;;31.56;72.86;100906.53;2122349;27;47280;-61
2023/09/10 03:36:51;;;;;;;;;10.25;9.75;;;;;31.54;72.89;100903.94;2122911;27;46402;-62
2023/09/10 03:37:51;;;;;;;;;11.75;11.75;;;;;31.53;73.29;100902.22;2115334;27;45502;-61
2023/09/10 03:38:51;;;;;;;;;8.25;7.25;;;;;31.52;72.49;100905.16;2116345;27;45610;-61
2023/09/10 03:39:52;;;;;;;;;9.75;9.75;;;;;31.52;73.19;100905.16;2113503;27;46505;-61
2023/09/10 03:40:52;;;;;;;;;12.75;11.50;;;;;31.51;72.66;100897.94;2118369;27;46148;-62
2023/09/10 03:41:53;;;;;;;;;11.75;10.25;;;;;31.49;73.06;100908.19;2122625;27;46655;-62
2023/09/10 03:42:53;;;;;;;;;10.75;10.75;;;;;31.54;72.96;100908.56;2122027;27;46560;-62
2023/09/10 03:43:55;;;;;;;;;9.75;9.75;;;;;31.55;72.99;100902.06;2118376;27;46836;-62
2023/09/10 03:44:55;;;;;;;;;8.20;8.20;;;;;31.58;73.03;100904.47;2111483;27;46433;-62
2023/09/10 03:45:55;;;;;;;;;10.50;10.50;;;;;31.60;72.44;100910.66;2113559;27;46468;-62
2023/09/10 03:46:56;;;;;;;;;9.75;9.50;;;;;31.61;72.65;100905.00;2122481;27;46338;-61
2023/09/10 03:47:56;;;;;;;;;10.00;10.00;;;;;31.61;72.47;100904.13;2113091;27;46879;-62
2023/09/10 03:48:56;;;;;;;;;9.75;9.75;;;;;31.61;72.10;100906.88;2112528;27;46375;-62
2023/09/10 03:49:56;;;;;;;;;10.00;8.75;;;;;31.60;72.37;100907.91;2104811;28;46318;-62
2023/09/10 03:50:57;;;;;;;;;11.00;10.25;;;;;31.60;72.26;100902.41;2111630;27;46341;-62
2023/09/10 03:51:57;;;;;;;;;12.75;10.75;;;;;31.61;72.99;100909.63;2122852;27;46663;-62
2023/09/10 03:52:58;;;;;;;;;9.50;9.50;;;;;31.60;72.41;100906.03;2121993;27;46519;-62
2023/09/10 03:53:58;;;;;;;;;9.00;8.00;;;;;31.62;73.06;100909.44;2122796;27;46838;-62
2023/09/10 03:54:58;;;;;;;;;11.75;8.75;;;;;31.61;72.96;100909.63;2122772;27;46554;-63
2023/09/10 03:55:58;;;;;;;;;12.00;11.00;;;;;31.66;72.95;100903.66;2122450;27;46596;-62
2023/09/10 03:56:59;;;;;;;;;13.25;10.50;;;;;31.59;72.58;100900.69;2122466;27;46681;-61
2023/09/10 03:57:59;;;;;;;;;9.50;8.75;;;;;31.59;72.50;100904.31;2122859;27;46472;-62
2023/09/10 03:58:59;;;;;;;;;9.75;9.75;;;;;31.57;72.41;100905.50;2122443;27;46622;-62
2023/09/10 04:00:00;;;;;;;;;12.00;10.75;;;;;31.54;72.46;100900.34;2122325;27;46772;-62
2023/09/10 04:01:00;;;;;;;;;9.00;8.75;;;;;31.51;72.96;100907.03;2122419;27;46442;-62
2023/09/10 04:02:00;;;;;;;;;11.25;11.25;;;;;31.49;72.55;100903.56;2113461;27;46251;-62
2023/09/10 04:03:01;;;;;;;;;9.75;9.75;;;;;31.47;72.73;100905.63;2113569;27;46876;-60
2023/09/10 04:04:05;;;;;;;;;12.50;12.50;;;;;31.47;73.16;100904.75;2122711;27;46660;-61
2023/09/10 04:05:05;;;;;;;;;11.00;10.20;;;;;31.46;72.85;100905.78;2121850;27;46574;-62
2023/09/10 04:06:06;;;;;;;;;10.50;9.75;;;;;31.46;72.46;100906.66;2122329;27;46474;-62
2023/09/10 04:07:06;;;;;;;;;8.00;8.00;;;;;31.45;73.55;100910.41;2117048;27;46562;-62
2023/09/10 04:08:06;;;;;;;;;10.50;10.50;;;;;31.47;73.48;100907.50;2114732;27;46690;-62
2023/09/10 04:09:07;;;;;;;;;10.50;10.50;;;;;31.47;72.82;100904.75;2120880;27;46667;-62
2023/09/10 04:10:08;;;;;;;;;11.00;10.25;;;;;31.48;73.34;100907.34;2121607;27;46583;-61
2023/09/10 04:11:09;;;;;;;;;10.25;9.00;;;;;31.48;73.39;100906.47;2116059;27;47032;-62
2023/09/10 04:12:09;;;;;;;;;11.00;11.00;;;;;31.48;73.04;100907.34;2122448;27;46470;-62
2023/09/10 04:13:09;;;;;;;;;10.50;10.50;;;;;31.47;73.42;100902.88;2121803;27;46469;-62
2023/09/10 04:14:10;;;;;;;;;9.75;9.75;;;;;31.47;72.86;100910.25;2122318;27;46579;-63
2023/09/10 04:15:10;;;;;;;;;11.50;9.75;;;;;31.47;73.48;100907.50;2113110;27;46358;-63
2023/09/10 04:16:10;;;;;;;;;8.50;8.50;;;;;31.47;73.23;100913.84;2113416;27;46748;-62
2023/09/10 04:17:15;;;;;;;;;8.00;8.00;;;;;31.47;72.59;100905.63;2122926;27;46657;-62
2023/09/10 04:18:16;;;;;;;;;10.20;10.20;;;;;31.48;72.61;100907.34;2113520;27;46773;-62
2023/09/10 04:19:16;;;;;;;;;10.75;9.50;;;;;31.47;72.73;100907.50;2113031;27;46647;-62
2023/09/10 04:20:19;;;;;;;;;11.50;10.75;;;;;31.46;72.76;100903.91;2121860;27;46612;-62
2023/09/10 04:21:20;;;;;;;;;9.00;9.00;;;;;31.45;72.82;100904.06;2122087;27;46410;-62
2023/09/10 04:22:20;;;;;;;;;9.50;9.25;;;;;31.43;72.83;100903.38;2121150;27;46780;-62
2023/09/10 04:23:20;;;;;;;;;8.75;8.75;;;;;31.44;72.72;100905.09;2122528;27;46613;-62
2023/09/10 04:24:21;;;;;;;;;12.25;11.00;;;;;31.44;73.02;100902.34;2122458;27;46218;-62
2023/09/10 04:25:21;;;;;;;;;11.25;11.25;;;;;31.44;72.61;100908.69;2122241;27;46849;-62
2023/09/10 04:26:21;;;;;;;;;12.25;11.25;;;;;31.42;72.86;100909.88;2122276;27;46552;-62
2023/09/10 04:27:22;;;;;;;;;10.00;9.25;;;;;31.44;72.84;100903.22;2113299;27;46474;-62
2023/09/10 04:28:22;;;;;;;;;11.25;9.00;;;;;31.43;72.22;100904.25;2112736;27;46215;-62
2023/09/10 04:29:24;;;;;;;;;9.75;9.75;;;;;31.42;72.63;100916.22;2122943;27;45699;-62
2023/09/10 04:30:25;;;;;;;;;9.20;8.80;;;;;31.38;72.16;100909.38;2113289;27;46380;-62
2023/09/10 04:31:25;;;;;;;;;10.25;9.50;;;;;31.36;72.87;100907.78;2113012;27;46287;-62
2023/09/10 04:32:25;;;;;;;;;10.50;9.00;;;;;31.34;73.25;100905.22;2122458;27;46478;-62
2023/09/10 04:33:26;;;;;;;;;9.75;9.75;;;;;31.36;72.46;100905.03;2121629;27;47602;-61
2023/09/10 04:34:26;;;;;;;;;12.00;12.00;;;;;31.37;73.10;100909.50;2122369;27;46546;-61
2023/09/10 04:35:26;;;;;;;;;9.25;9.00;;;;;31.37;72.78;100909.50;2113288;27;46991;-61
2023/09/10 04:36:26;;;;;;;;;9.25;9.25;;;;;31.37;72.57;100907.63;2113052;27;46662;-61
2023/09/10 04:37:27;;;;;;;;;11.00;11.00;;;;;31.36;72.90;100903.16;2118694;27;46576;-62
2023/09/10 04:38:27;;;;;;;;;9.00;8.50;;;;;31.34;72.77;100903.31;2112017;27;46780;-61
2023/09/10 04:39:27;;;;;;;;;13.00;12.00;;;;;31.33;72.99;100908.97;2117600;27;46669;-62
2023/09/10 04:40:28;;;;;;;;;10.00;10.00;;;;;31.33;73.06;100908.97;2122258;27;46512;-62
2023/09/10 04:41:28;;;;;;;;;10.00;10.00;;;;;31.29;72.58;100905.72;2122158;27;46456;-62
2023/09/10 04:42:28;;;;;;;;;11.50;10.25;;;;;31.36;73.03;100908.66;2122183;27;46686;-61